sensor_id;sensor_type;location;lat;lon;timestamp;temperature;humidity
15596;DHT22;7898;48.658;9.068;2022-07-22T00:02:20;16.80;99.90
15596;DHT22;7898;48.658;9.068;2022-07-22T00:04:47;16.60;99.90
15596;DHT22;7898;48.658;9.068;2022-07-22T00:07:14;16.60;99.90
15596;DHT22;7898;48.658;9.068;2022-07-22T00:09:42;16.60;99.90
15596;DHT22;7898;48.658;9.068;2022-07-22T00:12:10;16.60;99.90
15596;DHT22;7898;48.658;9.068;2022-07-22T00:14:39;16.50;99.90
15596;DHT22;7898;48.658;9.068;2022-07-22T00:17:05;16.50;99.90
15596;DHT22;7898;48.658;9.068;2022-07-22T00:19:33;16.50;99.90
15596;DHT22;7898;48.658;9.068;2022-07-22T00:22:00;16.50;99.90
15596;DHT22;7898;48.658;9.068;2022-07-22T00:24:27;16.40;99.90
15596;DHT22;7898;48.658;9.068;2022-07-22T00:26:54;16.40;99.90
15596;DHT22;7898;48.658;9.068;2022-07-22T00:29:20;16.40;99.90
15596;DHT22;7898;48.658;9.068;2022-07-22T00:31:49;16.40;99.90
15596;DHT22;7898;48.658;9.068;2022-07-22T00:34:16;16.40;99.90
15596;DHT22;7898;48.658;9.068;2022-07-22T00:36:43;16.40;99.90
15596;DHT22;7898;48.658;9.068;2022-07-22T00:39:10;16.40;99.90
15596;DHT22;7898;48.658;9.068;2022-07-22T00:41:37;16.40;99.90
15596;DHT22;7898;48.658;9.068;2022-07-22T00:44:05;16.40;99.90
15596;DHT22;7898;48.658;9.068;2022-07-22T00:46:34;16.40;99.90
15596;DHT22;7898;48.658;9.068;2022-07-22T00:49:03;16.40;99.90
15596;DHT22;7898;48.658;9.068;2022-07-22T00:51:31;16.30;99.90
15596;DHT22;7898;48.658;9.068;2022-07-22T00:53:59;16.30;99.90
15596;DHT22;7898;48.658;9.068;2022-07-22T00:56:26;16.20;99.90
15596;DHT22;7898;48.658;9.068;2022-07-22T00:58:55;16.10;99.90
15596;DHT22;7898;48.658;9.068;2022-07-22T01:01:23;16.00;99.90
15596;DHT22;7898;48.658;9.068;2022-07-22T01:03:50;16.10;99.90
15596;DHT22;7898;48.658;9.068;2022-07-22T01:06:18;16.00;99.90
15596;DHT22;7898;48.658;9.068;2022-07-22T01:08:45;16.10;99.90
15596;DHT22;7898;48.658;9.068;2022-07-22T01:11:14;16.00;99.90
15596;DHT22;7898;48.658;9.068;2022-07-22T01:13:43;15.90;99.90
15596;DHT22;7898;48.658;9.068;2022-07-22T01:16:11;15.90;99.90
15596;DHT22;7898;48.658;9.068;2022-07-22T01:18:39;15.90;99.90
15596;DHT22;7898;48.658;9.068;2022-07-22T01:21:09;15.90;99.90
15596;DHT22;7898;48.658;9.068;2022-07-22T01:23:36;15.90;99.90
15596;DHT22;7898;48.658;9.068;2022-07-22T01:26:04;15.90;99.90
15596;DHT22;7898;48.658;9.068;2022-07-22T01:28:31;15.90;99.90
15596;DHT22;7898;48.658;9.068;2022-07-22T01:30:58;15.90;99.90
15596;DHT22;7898;48.658;9.068;2022-07-22T01:33:25;15.80;99.90
15596;DHT22;7898;48.658;9.068;2022-07-22T01:35:52;15.80;99.90
15596;DHT22;7898;48.658;9.068;2022-07-22T01:38:21;15.80;99.90
15596;DHT22;7898;48.658;9.068;2022-07-22T01:40:47;15.80;99.90
15596;DHT22;7898;48.658;9.068;2022-07-22T01:43:15;15.80;99.90
15596;DHT22;7898;48.658;9.068;2022-07-22T01:45:45;15.80;99.90
15596;DHT22;7898;48.658;9.068;2022-07-22T01:48:12;15.80;99.90
15596;DHT22;7898;48.658;9.068;2022-07-22T01:50:39;15.70;99.90
15596;DHT22;7898;48.658;9.068;2022-07-22T01:53:06;15.70;99.90
15596;DHT22;7898;48.658;9.068;2022-07-22T01:55:35;15.60;99.90
15596;DHT22;7898;48.658;9.068;2022-07-22T01:58:02;15.60;99.90
15596;DHT22;7898;48.658;9.068;2022-07-22T02:00:30;15.60;99.90
15596;DHT22;7898;48.658;9.068;2022-07-22T02:02:57;15.70;99.90
15596;DHT22;7898;48.658;9.068;2022-07-22T02:05:24;15.70;99.90
15596;DHT22;7898;48.658;9.068;2022-07-22T02:07:51;15.70;99.90
15596;DHT22;7898;48.658;9.068;2022-07-22T02:10:18;15.60;99.90
15596;DHT22;7898;48.658;9.068;2022-07-22T02:12:46;15.60;99.90
15596;DHT22;7898;48.658;9.068;2022-07-22T02:15:13;15.70;99.90
15596;DHT22;7898;48.658;9.068;2022-07-22T02:17:40;15.70;99.90
15596;DHT22;7898;48.658;9.068;2022-07-22T02:20:08;15.70;99.90
15596;DHT22;7898;48.658;9.068;2022-07-22T02:22:35;15.60;99.90
15596;DHT22;7898;48.658;9.068;2022-07-22T02:25:02;15.60;99.90
15596;DHT22;7898;48.658;9.068;2022-07-22T02:27:30;15.50;99.90
15596;DHT22;7898;48.658;9.068;2022-07-22T02:29:58;15.60;99.90
15596;DHT22;7898;48.658;9.068;2022-07-22T02:32:25;15.60;99.90
15596;DHT22;7898;48.658;9.068;2022-07-22T02:34:52;15.50;99.90
15596;DHT22;7898;48.658;9.068;2022-07-22T02:37:18;15.50;99.90
15596;DHT22;7898;48.658;9.068;2022-07-22T02:39:46;15.50;99.90
15596;DHT22;7898;48.658;9.068;2022-07-22T02:42:13;15.40;99.90
15596;DHT22;7898;48.658;9.068;2022-07-22T02:44:40;15.40;99.90
15596;DHT22;7898;48.658;9.068;2022-07-22T02:47:08;15.40;99.90
15596;DHT22;7898;48.658;9.068;2022-07-22T02:49:35;15.40;99.90
15596;DHT22;7898;48.658;9.068;2022-07-22T02:52:02;15.40;99.90
15596;DHT22;7898;48.658;9.068;2022-07-22T02:54:29;15.40;99.90
15596;DHT22;7898;48.658;9.068;2022-07-22T02:56:56;15.40;99.90
15596;DHT22;7898;48.658;9.068;2022-07-22T02:59:23;15.30;99.90
15596;DHT22;7898;48.658;9.068;2022-07-22T03:01:50;15.30;99.90
15596;DHT22;7898;48.658;9.068;2022-07-22T03:04:18;15.20;99.90
15596;DHT22;7898;48.658;9.068;2022-07-22T03:06:45;15.20;99.90
15596;DHT22;7898;48.658;9.068;2022-07-22T03:09:12;15.20;99.90
15596;DHT22;7898;48.658;9.068;2022-07-22T03:11:38;15.10;99.90
15596;DHT22;7898;48.658;9.068;2022-07-22T03:14:05;15.10;99.90
15596;DHT22;7898;48.658;9.068;2022-07-22T03:16:32;15.00;99.90
15596;DHT22;7898;48.658;9.068;2022-07-22T03:18:59;14.90;99.90
15596;DHT22;7898;48.658;9.068;2022-07-22T03:21:27;14.90;99.90
15596;DHT22;7898;48.658;9.068;2022-07-22T03:23:54;14.90;99.90
15596;DHT22;7898;48.658;9.068;2022-07-22T03:26:22;14.80;99.90
15596;DHT22;7898;48.658;9.068;2022-07-22T03:28:49;14.80;99.90
15596;DHT22;7898;48.658;9.068;2022-07-22T03:31:16;14.80;99.90
15596;DHT22;7898;48.658;9.068;2022-07-22T03:33:43;14.80;99.90
15596;DHT22;7898;48.658;9.068;2022-07-22T03:36:09;14.90;99.90
15596;DHT22;7898;48.658;9.068;2022-07-22T03:38:38;14.90;99.90
15596;DHT22;7898;48.658;9.068;2022-07-22T03:41:05;14.90;99.90
15596;DHT22;7898;48.658;9.068;2022-07-22T03:43:32;14.90;99.90
15596;DHT22;7898;48.658;9.068;2022-07-22T03:45:58;14.90;99.90
15596;DHT22;7898;48.658;9.068;2022-07-22T03:48:25;14.90;99.90
15596;DHT22;7898;48.658;9.068;2022-07-22T03:50:52;14.90;99.90
15596;DHT22;7898;48.658;9.068;2022-07-22T03:53:19;14.90;99.90
15596;DHT22;7898;48.658;9.068;2022-07-22T03:55:48;14.90;99.90
15596;DHT22;7898;48.658;9.068;2022-07-22T03:58:16;14.80;99.90
15596;DHT22;7898;48.658;9.068;2022-07-22T04:00:43;14.80;99.90
15596;DHT22;7898;48.658;9.068;2022-07-22T04:03:09;14.70;99.90
15596;DHT22;7898;48.658;9.068;2022-07-22T04:05:36;14.70;99.90
15596;DHT22;7898;48.658;9.068;2022-07-22T04:08:04;14.70;99.90
15596;DHT22;7898;48.658;9.068;2022-07-22T04:10:31;14.60;99.90
15596;DHT22;7898;48.658;9.068;2022-07-22T04:12:59;14.60;99.90
15596;DHT22;7898;48.658;9.068;2022-07-22T04:15:27;14.60;99.90
15596;DHT22;7898;48.658;9.068;2022-07-22T04:17:53;14.70;99.90
15596;DHT22;7898;48.658;9.068;2022-07-22T04:20:20;14.70;99.90
15596;DHT22;7898;48.658;9.068;2022-07-22T04:22:47;14.80;99.90
15596;DHT22;7898;48.658;9.068;2022-07-22T04:25:14;14.80;99.90
15596;DHT22;7898;48.658;9.068;2022-07-22T04:27:41;14.90;99.90
15596;DHT22;7898;48.658;9.068;2022-07-22T04:30:10;14.90;99.90
15596;DHT22;7898;48.658;9.068;2022-07-22T04:32:37;14.90;99.90
15596;DHT22;7898;48.658;9.068;2022-07-22T04:35:05;15.00;99.90
15596;DHT22;7898;48.658;9.068;2022-07-22T04:37:32;15.10;99.90
15596;DHT22;7898;48.658;9.068;2022-07-22T04:39:59;15.10;99.90
15596;DHT22;7898;48.658;9.068;2022-07-22T04:42:25;15.10;99.90
15596;DHT22;7898;48.658;9.068;2022-07-22T04:44:52;15.20;99.90
15596;DHT22;7898;48.658;9.068;2022-07-22T04:47:21;15.30;99.90
15596;DHT22;7898;48.658;9.068;2022-07-22T04:49:47;15.30;99.90
15596;DHT22;7898;48.658;9.068;2022-07-22T04:52:14;15.40;99.90
15596;DHT22;7898;48.658;9.068;2022-07-22T04:54:41;15.50;99.90
15596;DHT22;7898;48.658;9.068;2022-07-22T04:57:08;15.60;99.90
15596;DHT22;7898;48.658;9.068;2022-07-22T04:59:35;15.70;99.90
15596;DHT22;7898;48.658;9.068;2022-07-22T05:02:02;15.80;99.90
15596;DHT22;7898;48.658;9.068;2022-07-22T05:04:31;15.80;99.90
15596;DHT22;7898;48.658;9.068;2022-07-22T05:06:58;15.80;99.90
15596;DHT22;7898;48.658;9.068;2022-07-22T05:09:24;15.90;99.90
15596;DHT22;7898;48.658;9.068;2022-07-22T05:11:51;15.90;99.90
15596;DHT22;7898;48.658;9.068;2022-07-22T05:14:18;16.00;99.90
15596;DHT22;7898;48.658;9.068;2022-07-22T05:16:46;16.10;99.90
15596;DHT22;7898;48.658;9.068;2022-07-22T05:19:13;16.30;99.90
15596;DHT22;7898;48.658;9.068;2022-07-22T05:21:41;16.50;99.90
15596;DHT22;7898;48.658;9.068;2022-07-22T05:24:08;16.60;99.90
15596;DHT22;7898;48.658;9.068;2022-07-22T05:26:35;16.70;99.90
15596;DHT22;7898;48.658;9.068;2022-07-22T05:29:02;16.80;99.90
15596;DHT22;7898;48.658;9.068;2022-07-22T05:31:29;16.90;99.90
15596;DHT22;7898;48.658;9.068;2022-07-22T05:33:57;17.00;99.90
15596;DHT22;7898;48.658;9.068;2022-07-22T05:36:24;17.10;99.90
15596;DHT22;7898;48.658;9.068;2022-07-22T05:38:52;17.30;99.90
15596;DHT22;7898;48.658;9.068;2022-07-22T05:41:19;17.50;99.90
15596;DHT22;7898;48.658;9.068;2022-07-22T05:43:47;17.70;99.90
15596;DHT22;7898;48.658;9.068;2022-07-22T05:46:14;17.80;99.90
15596;DHT22;7898;48.658;9.068;2022-07-22T05:48:41;18.00;99.90
15596;DHT22;7898;48.658;9.068;2022-07-22T05:51:11;18.10;99.90
15596;DHT22;7898;48.658;9.068;2022-07-22T05:53:39;18.20;99.90
15596;DHT22;7898;48.658;9.068;2022-07-22T05:56:08;18.40;99.90
15596;DHT22;7898;48.658;9.068;2022-07-22T05:58:37;18.50;99.90
15596;DHT22;7898;48.658;9.068;2022-07-22T06:01:04;18.70;99.90
15596;DHT22;7898;48.658;9.068;2022-07-22T06:03:34;18.80;99.90
15596;DHT22;7898;48.658;9.068;2022-07-22T06:06:01;19.00;99.90
15596;DHT22;7898;48.658;9.068;2022-07-22T06:08:30;19.10;99.90
15596;DHT22;7898;48.658;9.068;2022-07-22T06:10:58;19.30;99.90
15596;DHT22;7898;48.658;9.068;2022-07-22T06:13:27;19.50;99.90
15596;DHT22;7898;48.658;9.068;2022-07-22T06:15:54;19.70;99.90
15596;DHT22;7898;48.658;9.068;2022-07-22T06:18:21;19.80;99.90
15596;DHT22;7898;48.658;9.068;2022-07-22T06:20:48;19.90;99.90
15596;DHT22;7898;48.658;9.068;2022-07-22T06:23:15;19.90;99.90
15596;DHT22;7898;48.658;9.068;2022-07-22T06:25:43;20.10;99.90
15596;DHT22;7898;48.658;9.068;2022-07-22T06:28:10;20.20;99.90
15596;DHT22;7898;48.658;9.068;2022-07-22T06:30:39;20.30;99.90
15596;DHT22;7898;48.658;9.068;2022-07-22T06:33:06;20.40;99.90
15596;DHT22;7898;48.658;9.068;2022-07-22T06:35:33;20.50;99.90
15596;DHT22;7898;48.658;9.068;2022-07-22T06:38:01;20.70;99.90
15596;DHT22;7898;48.658;9.068;2022-07-22T06:40:28;20.80;99.90
15596;DHT22;7898;48.658;9.068;2022-07-22T06:42:55;20.90;99.90
15596;DHT22;7898;48.658;9.068;2022-07-22T06:45:22;21.10;99.90
15596;DHT22;7898;48.658;9.068;2022-07-22T06:47:51;21.20;99.90
15596;DHT22;7898;48.658;9.068;2022-07-22T06:50:17;21.40;99.90
15596;DHT22;7898;48.658;9.068;2022-07-22T06:52:44;21.60;99.90
15596;DHT22;7898;48.658;9.068;2022-07-22T06:55:12;21.70;99.90
15596;DHT22;7898;48.658;9.068;2022-07-22T06:57:39;21.80;99.90
15596;DHT22;7898;48.658;9.068;2022-07-22T07:00:07;22.10;99.90
15596;DHT22;7898;48.658;9.068;2022-07-22T07:02:35;22.50;99.90
15596;DHT22;7898;48.658;9.068;2022-07-22T07:05:04;22.80;99.90
15596;DHT22;7898;48.658;9.068;2022-07-22T07:07:31;23.40;99.90
15596;DHT22;7898;48.658;9.068;2022-07-22T07:09:58;24.00;99.90
15596;DHT22;7898;48.658;9.068;2022-07-22T07:12:25;24.30;99.90
15596;DHT22;7898;48.658;9.068;2022-07-22T07:14:52;24.70;99.90
15596;DHT22;7898;48.658;9.068;2022-07-22T07:17:19;24.90;99.90
15596;DHT22;7898;48.658;9.068;2022-07-22T07:19:45;24.90;99.90
15596;DHT22;7898;48.658;9.068;2022-07-22T07:22:14;25.30;99.90
15596;DHT22;7898;48.658;9.068;2022-07-22T07:24:41;25.60;99.90
15596;DHT22;7898;48.658;9.068;2022-07-22T07:27:08;26.10;99.90
15596;DHT22;7898;48.658;9.068;2022-07-22T07:29:35;26.20;99.90
15596;DHT22;7898;48.658;9.068;2022-07-22T07:32:02;26.20;99.90
15596;DHT22;7898;48.658;9.068;2022-07-22T07:34:29;26.50;99.90
15596;DHT22;7898;48.658;9.068;2022-07-22T07:36:56;26.40;99.90
15596;DHT22;7898;48.658;9.068;2022-07-22T07:39:24;26.60;99.90
15596;DHT22;7898;48.658;9.068;2022-07-22T07:41:52;26.90;99.90
15596;DHT22;7898;48.658;9.068;2022-07-22T07:44:19;27.00;99.90
15596;DHT22;7898;48.658;9.068;2022-07-22T07:46:46;27.20;99.90
15596;DHT22;7898;48.658;9.068;2022-07-22T07:49:12;27.00;99.90
15596;DHT22;7898;48.658;9.068;2022-07-22T07:51:39;26.80;99.90
15596;DHT22;7898;48.658;9.068;2022-07-22T07:54:06;26.70;99.90
15596;DHT22;7898;48.658;9.068;2022-07-22T07:56:34;26.80;99.90
15596;DHT22;7898;48.658;9.068;2022-07-22T07:59:01;26.80;99.90
15596;DHT22;7898;48.658;9.068;2022-07-22T08:01:28;26.80;99.90
15596;DHT22;7898;48.658;9.068;2022-07-22T08:03:55;26.70;99.90
15596;DHT22;7898;48.658;9.068;2022-07-22T08:06:22;26.80;99.90
15596;DHT22;7898;48.658;9.068;2022-07-22T08:08:49;27.00;99.90
15596;DHT22;7898;48.658;9.068;2022-07-22T08:11:16;27.00;99.90
15596;DHT22;7898;48.658;9.068;2022-07-22T08:13:44;26.70;99.90
15596;DHT22;7898;48.658;9.068;2022-07-22T08:16:11;26.70;99.90
15596;DHT22;7898;48.658;9.068;2022-07-22T08:18:38;26.60;99.90
15596;DHT22;7898;48.658;9.068;2022-07-22T08:21:05;26.60;99.90
15596;DHT22;7898;48.658;9.068;2022-07-22T08:23:33;26.80;99.90
15596;DHT22;7898;48.658;9.068;2022-07-22T08:26:00;26.90;99.90
15596;DHT22;7898;48.658;9.068;2022-07-22T08:28:27;26.80;99.90
15596;DHT22;7898;48.658;9.068;2022-07-22T08:30:55;26.80;99.90
15596;DHT22;7898;48.658;9.068;2022-07-22T08:33:22;26.80;99.90
15596;DHT22;7898;48.658;9.068;2022-07-22T08:35:49;27.00;99.90
15596;DHT22;7898;48.658;9.068;2022-07-22T08:38:16;27.20;99.90
15596;DHT22;7898;48.658;9.068;2022-07-22T08:40:43;27.30;99.90
15596;DHT22;7898;48.658;9.068;2022-07-22T08:43:10;27.10;99.90
15596;DHT22;7898;48.658;9.068;2022-07-22T08:45:39;27.00;99.90
15596;DHT22;7898;48.658;9.068;2022-07-22T08:48:08;27.10;99.90
15596;DHT22;7898;48.658;9.068;2022-07-22T08:50:35;27.20;99.90
15596;DHT22;7898;48.658;9.068;2022-07-22T08:53:02;27.20;99.90
15596;DHT22;7898;48.658;9.068;2022-07-22T08:55:30;27.30;99.90
15596;DHT22;7898;48.658;9.068;2022-07-22T08:57:57;27.50;99.90
15596;DHT22;7898;48.658;9.068;2022-07-22T09:00:24;27.40;99.90
15596;DHT22;7898;48.658;9.068;2022-07-22T09:02:51;27.20;99.90
15596;DHT22;7898;48.658;9.068;2022-07-22T09:05:19;27.20;99.90
15596;DHT22;7898;48.658;9.068;2022-07-22T09:07:46;27.20;99.90
15596;DHT22;7898;48.658;9.068;2022-07-22T09:10:15;27.30;99.90
15596;DHT22;7898;48.658;9.068;2022-07-22T09:12:54;27.40;99.90
15596;DHT22;7898;48.658;9.068;2022-07-22T09:15:27;27.50;99.90
15596;DHT22;7898;48.658;9.068;2022-07-22T09:17:56;27.50;99.90
15596;DHT22;7898;48.658;9.068;2022-07-22T09:20:26;27.70;99.90
15596;DHT22;7898;48.658;9.068;2022-07-22T09:22:53;27.90;99.90
15596;DHT22;7898;48.658;9.068;2022-07-22T09:25:27;27.90;99.90
15596;DHT22;7898;48.658;9.068;2022-07-22T09:28:08;28.00;99.90
15596;DHT22;7898;48.658;9.068;2022-07-22T09:30:37;28.20;99.90
15596;DHT22;7898;48.658;9.068;2022-07-22T09:33:04;28.30;99.90
15596;DHT22;7898;48.658;9.068;2022-07-22T09:35:33;28.10;99.90
15596;DHT22;7898;48.658;9.068;2022-07-22T09:38:02;27.70;99.90
15596;DHT22;7898;48.658;9.068;2022-07-22T09:40:31;27.40;99.90
15596;DHT22;7898;48.658;9.068;2022-07-22T09:43:02;27.30;99.90
15596;DHT22;7898;48.658;9.068;2022-07-22T09:45:31;27.20;99.90
15596;DHT22;7898;48.658;9.068;2022-07-22T09:47:59;27.20;99.90
15596;DHT22;7898;48.658;9.068;2022-07-22T09:50:28;27.40;99.90
15596;DHT22;7898;48.658;9.068;2022-07-22T09:52:59;27.60;99.90
15596;DHT22;7898;48.658;9.068;2022-07-22T09:55:28;27.60;99.90
15596;DHT22;7898;48.658;9.068;2022-07-22T09:57:56;27.50;99.90
15596;DHT22;7898;48.658;9.068;2022-07-22T10:00:25;27.60;99.90
15596;DHT22;7898;48.658;9.068;2022-07-22T10:02:54;27.80;99.90
15596;DHT22;7898;48.658;9.068;2022-07-22T10:05:24;27.90;99.90
15596;DHT22;7898;48.658;9.068;2022-07-22T10:07:52;27.90;99.90
15596;DHT22;7898;48.658;9.068;2022-07-22T10:10:22;27.90;99.90
15596;DHT22;7898;48.658;9.068;2022-07-22T10:12:51;27.90;99.90
15596;DHT22;7898;48.658;9.068;2022-07-22T10:15:18;28.00;99.90
15596;DHT22;7898;48.658;9.068;2022-07-22T10:17:47;28.10;99.90
15596;DHT22;7898;48.658;9.068;2022-07-22T10:20:17;28.30;99.90
15596;DHT22;7898;48.658;9.068;2022-07-22T10:22:48;28.30;99.90
15596;DHT22;7898;48.658;9.068;2022-07-22T10:25:16;28.40;99.90
15596;DHT22;7898;48.658;9.068;2022-07-22T10:27:48;28.40;99.90
15596;DHT22;7898;48.658;9.068;2022-07-22T10:30:17;28.30;99.90
15596;DHT22;7898;48.658;9.068;2022-07-22T10:32:45;28.30;99.90
15596;DHT22;7898;48.658;9.068;2022-07-22T10:35:25;28.50;99.90
15596;DHT22;7898;48.658;9.068;2022-07-22T10:37:54;28.50;99.90
15596;DHT22;7898;48.658;9.068;2022-07-22T10:40:22;28.60;99.90
15596;DHT22;7898;48.658;9.068;2022-07-22T10:43:10;28.60;99.90
15596;DHT22;7898;48.658;9.068;2022-07-22T10:45:42;28.60;99.90
15596;DHT22;7898;48.658;9.068;2022-07-22T10:48:12;28.60;99.90
15596;DHT22;7898;48.658;9.068;2022-07-22T10:50:51;28.70;99.90
15596;DHT22;7898;48.658;9.068;2022-07-22T10:53:22;28.70;99.90
15596;DHT22;7898;48.658;9.068;2022-07-22T10:56:06;28.70;99.90
15596;DHT22;7898;48.658;9.068;2022-07-22T10:58:57;28.50;99.90
15596;DHT22;7898;48.658;9.068;2022-07-22T11:01:26;28.50;99.90
15596;DHT22;7898;48.658;9.068;2022-07-22T11:03:55;28.60;99.90
15596;DHT22;7898;48.658;9.068;2022-07-22T11:06:25;28.60;99.90
15596;DHT22;7898;48.658;9.068;2022-07-22T11:08:53;28.70;99.90
15596;DHT22;7898;48.658;9.068;2022-07-22T11:11:40;28.70;99.90
15596;DHT22;7898;48.658;9.068;2022-07-22T11:14:17;28.80;99.90
15596;DHT22;7898;48.658;9.068;2022-07-22T11:16:46;28.80;99.90
15596;DHT22;7898;48.658;9.068;2022-07-22T11:19:13;28.70;99.90
15596;DHT22;7898;48.658;9.068;2022-07-22T11:21:40;28.80;99.90
15596;DHT22;7898;48.658;9.068;2022-07-22T11:24:08;28.80;99.90
15596;DHT22;7898;48.658;9.068;2022-07-22T11:26:40;28.80;99.90
15596;DHT22;7898;48.658;9.068;2022-07-22T11:29:09;29.00;99.90
15596;DHT22;7898;48.658;9.068;2022-07-22T11:31:38;29.10;99.90
15596;DHT22;7898;48.658;9.068;2022-07-22T11:34:10;29.00;99.90
15596;DHT22;7898;48.658;9.068;2022-07-22T11:36:39;29.00;99.90
15596;DHT22;7898;48.658;9.068;2022-07-22T11:39:07;29.00;99.90
15596;DHT22;7898;48.658;9.068;2022-07-22T11:41:35;29.00;99.90
15596;DHT22;7898;48.658;9.068;2022-07-22T11:44:03;29.00;99.90
15596;DHT22;7898;48.658;9.068;2022-07-22T11:46:37;28.90;99.90
15596;DHT22;7898;48.658;9.068;2022-07-22T11:49:04;28.90;99.90
15596;DHT22;7898;48.658;9.068;2022-07-22T11:51:32;28.90;99.90
15596;DHT22;7898;48.658;9.068;2022-07-22T11:54:00;29.00;99.90
15596;DHT22;7898;48.658;9.068;2022-07-22T11:56:27;29.00;99.90
15596;DHT22;7898;48.658;9.068;2022-07-22T11:58:54;29.10;99.90
15596;DHT22;7898;48.658;9.068;2022-07-22T12:01:23;29.30;99.90
15596;DHT22;7898;48.658;9.068;2022-07-22T12:03:54;29.30;99.90
15596;DHT22;7898;48.658;9.068;2022-07-22T12:06:22;29.40;99.90
15596;DHT22;7898;48.658;9.068;2022-07-22T12:08:51;29.40;99.90
15596;DHT22;7898;48.658;9.068;2022-07-22T12:11:21;29.40;99.90
15596;DHT22;7898;48.658;9.068;2022-07-22T12:13:50;29.30;99.90
15596;DHT22;7898;48.658;9.068;2022-07-22T12:16:22;29.40;99.90
15596;DHT22;7898;48.658;9.068;2022-07-22T12:18:56;29.50;99.90
15596;DHT22;7898;48.658;9.068;2022-07-22T12:21:24;29.50;99.90
15596;DHT22;7898;48.658;9.068;2022-07-22T12:23:53;29.50;99.90
15596;DHT22;7898;48.658;9.068;2022-07-22T12:26:36;29.50;99.90
15596;DHT22;7898;48.658;9.068;2022-07-22T12:29:18;29.50;99.90
15596;DHT22;7898;48.658;9.068;2022-07-22T12:31:46;29.40;99.90
15596;DHT22;7898;48.658;9.068;2022-07-22T12:34:15;29.50;99.90
15596;DHT22;7898;48.658;9.068;2022-07-22T12:36:46;29.60;99.90
15596;DHT22;7898;48.658;9.068;2022-07-22T12:39:15;29.60;99.90
15596;DHT22;7898;48.658;9.068;2022-07-22T12:41:48;29.70;99.90
15596;DHT22;7898;48.658;9.068;2022-07-22T12:44:17;29.60;99.90
15596;DHT22;7898;48.658;9.068;2022-07-22T12:46:45;29.70;99.90
15596;DHT22;7898;48.658;9.068;2022-07-22T12:49:12;29.70;99.90
15596;DHT22;7898;48.658;9.068;2022-07-22T12:51:40;29.70;99.90
15596;DHT22;7898;48.658;9.068;2022-07-22T12:54:07;29.80;99.90
15596;DHT22;7898;48.658;9.068;2022-07-22T12:56:40;29.70;99.90
15596;DHT22;7898;48.658;9.068;2022-07-22T12:59:07;29.70;99.90
15596;DHT22;7898;48.658;9.068;2022-07-22T13:01:34;29.80;99.90
15596;DHT22;7898;48.658;9.068;2022-07-22T13:04:01;29.90;99.90
15596;DHT22;7898;48.658;9.068;2022-07-22T13:06:31;30.00;99.90
15596;DHT22;7898;48.658;9.068;2022-07-22T13:08:59;30.20;99.90
15596;DHT22;7898;48.658;9.068;2022-07-22T13:11:26;30.30;99.90
15596;DHT22;7898;48.658;9.068;2022-07-22T13:13:53;30.50;99.90
15596;DHT22;7898;48.658;9.068;2022-07-22T13:16:20;30.50;99.90
15596;DHT22;7898;48.658;9.068;2022-07-22T13:18:49;30.60;99.90
15596;DHT22;7898;48.658;9.068;2022-07-22T13:21:16;30.70;99.90
15596;DHT22;7898;48.658;9.068;2022-07-22T13:23:43;30.80;99.90
15596;DHT22;7898;48.658;9.068;2022-07-22T13:26:11;30.90;99.90
15596;DHT22;7898;48.658;9.068;2022-07-22T13:28:38;31.00;99.90
15596;DHT22;7898;48.658;9.068;2022-07-22T13:31:05;31.10;99.90
15596;DHT22;7898;48.658;9.068;2022-07-22T13:33:32;30.90;99.90
15596;DHT22;7898;48.658;9.068;2022-07-22T13:35:59;30.80;99.90
15596;DHT22;7898;48.658;9.068;2022-07-22T13:38:26;30.60;99.90
15596;DHT22;7898;48.658;9.068;2022-07-22T13:40:52;30.80;99.90
15596;DHT22;7898;48.658;9.068;2022-07-22T13:43:23;30.90;99.90
15596;DHT22;7898;48.658;9.068;2022-07-22T13:45:51;30.90;99.80
15596;DHT22;7898;48.658;9.068;2022-07-22T13:48:18;30.90;99.90
15596;DHT22;7898;48.658;9.068;2022-07-22T13:50:46;31.20;99.60
15596;DHT22;7898;48.658;9.068;2022-07-22T13:53:13;31.30;99.40
15596;DHT22;7898;48.658;9.068;2022-07-22T13:55:40;31.50;99.50
15596;DHT22;7898;48.658;9.068;2022-07-22T13:58:07;31.70;99.90
15596;DHT22;7898;48.658;9.068;2022-07-22T14:00:35;32.10;99.90
15596;DHT22;7898;48.658;9.068;2022-07-22T14:03:03;32.30;99.50
15596;DHT22;7898;48.658;9.068;2022-07-22T14:05:31;32.50;99.60
15596;DHT22;7898;48.658;9.068;2022-07-22T14:07:58;32.70;99.00
15596;DHT22;7898;48.658;9.068;2022-07-22T14:10:25;32.80;98.00
15596;DHT22;7898;48.658;9.068;2022-07-22T14:12:52;32.90;98.40
15596;DHT22;7898;48.658;9.068;2022-07-22T14:15:18;32.90;96.70
15596;DHT22;7898;48.658;9.068;2022-07-22T14:17:47;33.00;97.60
15596;DHT22;7898;48.658;9.068;2022-07-22T14:20:14;32.70;97.10
15596;DHT22;7898;48.658;9.068;2022-07-22T14:22:41;32.60;97.90
15596;DHT22;7898;48.658;9.068;2022-07-22T14:25:08;32.70;97.10
15596;DHT22;7898;48.658;9.068;2022-07-22T14:27:35;33.00;97.70
15596;DHT22;7898;48.658;9.068;2022-07-22T14:30:03;33.30;97.40
15596;DHT22;7898;48.658;9.068;2022-07-22T14:32:30;33.40;96.70
15596;DHT22;7898;48.658;9.068;2022-07-22T14:34:58;33.50;95.70
15596;DHT22;7898;48.658;9.068;2022-07-22T14:37:25;33.10;97.20
15596;DHT22;7898;48.658;9.068;2022-07-22T14:39:52;33.00;95.50
15596;DHT22;7898;48.658;9.068;2022-07-22T14:42:19;32.70;95.30
15596;DHT22;7898;48.658;9.068;2022-07-22T14:44:45;32.90;95.10
15596;DHT22;7898;48.658;9.068;2022-07-22T14:47:14;33.20;94.50
15596;DHT22;7898;48.658;9.068;2022-07-22T14:49:40;33.70;95.80
15596;DHT22;7898;48.658;9.068;2022-07-22T14:52:09;33.80;94.20
15596;DHT22;7898;48.658;9.068;2022-07-22T14:54:36;34.40;95.90
15596;DHT22;7898;48.658;9.068;2022-07-22T14:57:03;35.40;94.40
15596;DHT22;7898;48.658;9.068;2022-07-22T14:59:30;35.50;92.30
15596;DHT22;7898;48.658;9.068;2022-07-22T15:01:56;35.40;92.20
15596;DHT22;7898;48.658;9.068;2022-07-22T15:04:23;35.50;93.40
15596;DHT22;7898;48.658;9.068;2022-07-22T15:06:50;36.00;94.10
15596;DHT22;7898;48.658;9.068;2022-07-22T15:09:19;36.40;91.40
15596;DHT22;7898;48.658;9.068;2022-07-22T15:11:48;36.70;91.50
15596;DHT22;7898;48.658;9.068;2022-07-22T15:14:15;36.50;90.90
15596;DHT22;7898;48.658;9.068;2022-07-22T15:16:43;36.20;91.60
15596;DHT22;7898;48.658;9.068;2022-07-22T15:19:10;36.40;91.20
15596;DHT22;7898;48.658;9.068;2022-07-22T15:21:38;35.70;90.90
15596;DHT22;7898;48.658;9.068;2022-07-22T15:24:05;35.30;92.20
15596;DHT22;7898;48.658;9.068;2022-07-22T15:26:35;35.20;90.60
15596;DHT22;7898;48.658;9.068;2022-07-22T15:29:02;35.60;92.00
15596;DHT22;7898;48.658;9.068;2022-07-22T15:31:29;36.00;91.50
15596;DHT22;7898;48.658;9.068;2022-07-22T15:33:58;36.20;91.30
15596;DHT22;7898;48.658;9.068;2022-07-22T15:36:25;36.40;91.20
15596;DHT22;7898;48.658;9.068;2022-07-22T15:38:52;36.80;90.10
15596;DHT22;7898;48.658;9.068;2022-07-22T15:41:19;37.10;92.50
15596;DHT22;7898;48.658;9.068;2022-07-22T15:43:48;37.40;92.00
15596;DHT22;7898;48.658;9.068;2022-07-22T15:46:15;37.20;91.10
15596;DHT22;7898;48.658;9.068;2022-07-22T15:48:42;37.00;90.20
15596;DHT22;7898;48.658;9.068;2022-07-22T15:51:09;36.50;89.30